EDDP/LEJ METAR and TAF weather

Enter ICAO airport designator
Station Type Date Time Source
EDDP METAR 2021/08/02 02:20 UTC NOAA

EDDP 020220Z 24005KT 9999 BKN026 14/13 Q1010 NOSIG


Station Type Date Time Source
EDDP Decoded METAR 2021/08/02 02:20 UTC NOAA

Leipzig-Schkeuditz, Germany (EDDP) 51-25N 012-14E 149M
Aug 01, 2021 - 10:20 PM EDT / 2021.08.02 0220 UTC
Wind: from the WSW (240 degrees) at 6 MPH (5 KT):0
Visibility: greater than 7 mile(s):0
Sky conditions: mostly cloudy
Temperature: 57 F (14 C)
Dew Point: 55 F (13 C)
Relative Humidity: 93%
Pressure (altimeter): 29.83 in. Hg (1010 hPa)
ob: EDDP 020220Z 24005KT 9999 BKN026 14/13 Q1010 NOSIG
cycle: 2

Station Type Date Time Source
EDDP TAF 2021/08/01 18:27 UTC NOAA

TAF TAF EDDP 011700Z 0118/0218 25007KT 9999 FEW045 PROB30
TEMPO 0118/0120 SHRA SCT035TCU PROB30
TEMPO 0202/0207 SHRA BKN015CB
TEMPO 0204/0206 BKN013
BECMG 0206/0208 26012KT PROB30
TEMPO 0210/0216 27015G25KT

Example: see airport list